sensor_id;sensor_type;location;lat;lon;timestamp;temperature;humidity
48998;DHT22;34807;51.456;7.244;2022-10-13T00:01:53;10.70;92.40
48998;DHT22;34807;51.456;7.244;2022-10-13T00:04:19;10.70;92.50
48998;DHT22;34807;51.456;7.244;2022-10-13T00:06:44;10.70;92.40
48998;DHT22;34807;51.456;7.244;2022-10-13T00:09:09;10.70;92.40
48998;DHT22;34807;51.456;7.244;2022-10-13T00:11:35;10.70;92.40
48998;DHT22;34807;51.456;7.244;2022-10-13T00:14:02;10.70;92.40
48998;DHT22;34807;51.456;7.244;2022-10-13T00:16:28;10.70;92.40
48998;DHT22;34807;51.456;7.244;2022-10-13T00:18:54;10.70;92.40
48998;DHT22;34807;51.456;7.244;2022-10-13T00:21:20;10.70;92.40
48998;DHT22;34807;51.456;7.244;2022-10-13T00:23:46;10.70;92.50
48998;DHT22;34807;51.456;7.244;2022-10-13T00:26:12;10.70;92.40
48998;DHT22;34807;51.456;7.244;2022-10-13T00:28:38;10.70;92.50
48998;DHT22;34807;51.456;7.244;2022-10-13T00:31:14;10.70;92.40
48998;DHT22;34807;51.456;7.244;2022-10-13T00:33:40;10.70;92.50
48998;DHT22;34807;51.456;7.244;2022-10-13T00:36:06;10.70;92.40
48998;DHT22;34807;51.456;7.244;2022-10-13T00:38:31;10.70;92.40
48998;DHT22;34807;51.456;7.244;2022-10-13T00:40:57;10.70;92.40
48998;DHT22;34807;51.456;7.244;2022-10-13T00:43:24;10.70;92.40
48998;DHT22;34807;51.456;7.244;2022-10-13T00:45:50;10.70;92.50
48998;DHT22;34807;51.456;7.244;2022-10-13T00:48:16;10.70;92.50
48998;DHT22;34807;51.456;7.244;2022-10-13T00:50:43;10.70;92.40
48998;DHT22;34807;51.456;7.244;2022-10-13T00:53:08;10.60;92.40
48998;DHT22;34807;51.456;7.244;2022-10-13T00:55:35;10.60;92.50
48998;DHT22;34807;51.456;7.244;2022-10-13T00:58:04;10.60;92.40
48998;DHT22;34807;51.456;7.244;2022-10-13T01:00:31;10.60;92.50
48998;DHT22;34807;51.456;7.244;2022-10-13T01:02:57;10.60;92.40
48998;DHT22;34807;51.456;7.244;2022-10-13T01:05:22;10.60;92.50
48998;DHT22;34807;51.456;7.244;2022-10-13T01:07:48;10.60;92.50
48998;DHT22;34807;51.456;7.244;2022-10-13T01:10:15;10.60;92.50
48998;DHT22;34807;51.456;7.244;2022-10-13T01:15:27;10.60;92.50
48998;DHT22;34807;51.456;7.244;2022-10-13T01:33:48;10.60;92.50
48998;DHT22;34807;51.456;7.244;2022-10-13T01:36:25;10.60;92.50
48998;DHT22;34807;51.456;7.244;2022-10-13T01:38:58;10.60;92.50
48998;DHT22;34807;51.456;7.244;2022-10-13T01:44:02;10.60;92.50
48998;DHT22;34807;51.456;7.244;2022-10-13T01:46:33;10.60;92.50
48998;DHT22;34807;51.456;7.244;2022-10-13T01:49:01;10.60;92.50
48998;DHT22;34807;51.456;7.244;2022-10-13T01:51:28;10.60;92.50
48998;DHT22;34807;51.456;7.244;2022-10-13T01:53:55;10.60;92.40
48998;DHT22;34807;51.456;7.244;2022-10-13T01:56:21;10.60;92.50
48998;DHT22;34807;51.456;7.244;2022-10-13T01:58:47;10.60;92.70
48998;DHT22;34807;51.456;7.244;2022-10-13T02:01:18;10.60;92.40
48998;DHT22;34807;51.456;7.244;2022-10-13T02:06:35;10.60;92.40
48998;DHT22;34807;51.456;7.244;2022-10-13T02:09:05;10.60;92.40
48998;DHT22;34807;51.456;7.244;2022-10-13T02:11:33;10.60;92.40
48998;DHT22;34807;51.456;7.244;2022-10-13T02:14:01;10.60;92.40
48998;DHT22;34807;51.456;7.244;2022-10-13T02:16:28;10.50;92.40
48998;DHT22;34807;51.456;7.244;2022-10-13T02:18:55;10.60;92.40
48998;DHT22;34807;51.456;7.244;2022-10-13T02:21:21;10.60;92.40
48998;DHT22;34807;51.456;7.244;2022-10-13T02:23:47;10.60;92.40
48998;DHT22;34807;51.456;7.244;2022-10-13T02:26:12;10.60;92.50
48998;DHT22;34807;51.456;7.244;2022-10-13T02:28:38;10.60;92.40
48998;DHT22;34807;51.456;7.244;2022-10-13T02:31:04;10.60;92.40
48998;DHT22;34807;51.456;7.244;2022-10-13T02:33:32;10.60;92.40
48998;DHT22;34807;51.456;7.244;2022-10-13T02:35:57;10.60;92.40
48998;DHT22;34807;51.456;7.244;2022-10-13T02:38:23;10.60;92.40
48998;DHT22;34807;51.456;7.244;2022-10-13T02:40:48;10.60;92.40
48998;DHT22;34807;51.456;7.244;2022-10-13T02:43:14;10.60;92.40
48998;DHT22;34807;51.456;7.244;2022-10-13T02:45:39;10.60;92.40
48998;DHT22;34807;51.456;7.244;2022-10-13T02:48:05;10.60;92.40
48998;DHT22;34807;51.456;7.244;2022-10-13T02:50:30;10.60;92.40
48998;DHT22;34807;51.456;7.244;2022-10-13T02:52:56;10.70;92.40
48998;DHT22;34807;51.456;7.244;2022-10-13T02:55:21;10.60;92.40
48998;DHT22;34807;51.456;7.244;2022-10-13T02:57:47;10.60;92.40
48998;DHT22;34807;51.456;7.244;2022-10-13T03:00:12;10.70;92.40
48998;DHT22;34807;51.456;7.244;2022-10-13T03:02:38;10.70;92.40
48998;DHT22;34807;51.456;7.244;2022-10-13T03:05:04;10.70;92.40
48998;DHT22;34807;51.456;7.244;2022-10-13T03:07:29;10.70;92.30
48998;DHT22;34807;51.456;7.244;2022-10-13T03:09:55;10.70;92.40
48998;DHT22;34807;51.456;7.244;2022-10-13T03:12:20;10.70;92.40
48998;DHT22;34807;51.456;7.244;2022-10-13T03:14:46;10.70;92.30
48998;DHT22;34807;51.456;7.244;2022-10-13T03:17:11;10.70;92.40
48998;DHT22;34807;51.456;7.244;2022-10-13T03:19:37;10.70;92.30
48998;DHT22;34807;51.456;7.244;2022-10-13T03:22:02;10.70;92.40
48998;DHT22;34807;51.456;7.244;2022-10-13T03:24:27;10.70;92.40
48998;DHT22;34807;51.456;7.244;2022-10-13T03:26:53;10.70;92.30
48998;DHT22;34807;51.456;7.244;2022-10-13T03:29:19;10.70;92.30
48998;DHT22;34807;51.456;7.244;2022-10-13T03:31:44;10.70;92.40
48998;DHT22;34807;51.456;7.244;2022-10-13T03:34:10;10.70;92.30
48998;DHT22;34807;51.456;7.244;2022-10-13T03:36:36;10.70;92.40
48998;DHT22;34807;51.456;7.244;2022-10-13T03:39:01;10.70;92.40
48998;DHT22;34807;51.456;7.244;2022-10-13T03:41:27;10.70;92.30
48998;DHT22;34807;51.456;7.244;2022-10-13T03:43:52;10.70;92.40
48998;DHT22;34807;51.456;7.244;2022-10-13T03:46:18;10.70;92.30
48998;DHT22;34807;51.456;7.244;2022-10-13T03:48:44;10.70;92.40
48998;DHT22;34807;51.456;7.244;2022-10-13T03:51:11;10.70;92.30
48998;DHT22;34807;51.456;7.244;2022-10-13T03:53:37;10.70;92.30
48998;DHT22;34807;51.456;7.244;2022-10-13T03:56:02;10.70;92.30
48998;DHT22;34807;51.456;7.244;2022-10-13T03:58:28;10.70;92.30
48998;DHT22;34807;51.456;7.244;2022-10-13T04:00:55;10.70;92.30
48998;DHT22;34807;51.456;7.244;2022-10-13T04:03:20;10.70;92.40
48998;DHT22;34807;51.456;7.244;2022-10-13T04:05:46;10.70;92.30
48998;DHT22;34807;51.456;7.244;2022-10-13T04:08:12;10.70;92.30
48998;DHT22;34807;51.456;7.244;2022-10-13T04:10:38;10.70;92.40
48998;DHT22;34807;51.456;7.244;2022-10-13T04:13:03;10.70;92.30
48998;DHT22;34807;51.456;7.244;2022-10-13T04:15:30;10.70;92.30
48998;DHT22;34807;51.456;7.244;2022-10-13T04:17:55;10.70;92.30
48998;DHT22;34807;51.456;7.244;2022-10-13T04:20:21;10.70;92.30
48998;DHT22;34807;51.456;7.244;2022-10-13T04:22:46;10.70;92.30
48998;DHT22;34807;51.456;7.244;2022-10-13T04:25:12;10.70;92.30
48998;DHT22;34807;51.456;7.244;2022-10-13T04:27:37;10.70;92.30
48998;DHT22;34807;51.456;7.244;2022-10-13T04:30:04;10.70;92.30
48998;DHT22;34807;51.456;7.244;2022-10-13T04:32:30;10.70;92.30
48998;DHT22;34807;51.456;7.244;2022-10-13T04:34:55;10.70;92.30
48998;DHT22;34807;51.456;7.244;2022-10-13T04:37:22;10.70;92.30
48998;DHT22;34807;51.456;7.244;2022-10-13T04:39:47;10.70;92.30
48998;DHT22;34807;51.456;7.244;2022-10-13T04:42:13;10.70;92.30
48998;DHT22;34807;51.456;7.244;2022-10-13T04:44:38;10.70;92.30
48998;DHT22;34807;51.456;7.244;2022-10-13T04:47:04;10.70;92.30
48998;DHT22;34807;51.456;7.244;2022-10-13T04:49:29;10.70;92.30
48998;DHT22;34807;51.456;7.244;2022-10-13T04:51:55;10.70;92.30
48998;DHT22;34807;51.456;7.244;2022-10-13T04:54:21;10.70;92.20
48998;DHT22;34807;51.456;7.244;2022-10-13T04:56:46;10.70;92.30
48998;DHT22;34807;51.456;7.244;2022-10-13T04:59:12;10.70;92.50
48998;DHT22;34807;51.456;7.244;2022-10-13T05:01:37;10.70;92.20
48998;DHT22;34807;51.456;7.244;2022-10-13T05:04:03;10.70;92.30
48998;DHT22;34807;51.456;7.244;2022-10-13T05:06:30;10.70;92.30
48998;DHT22;34807;51.456;7.244;2022-10-13T05:08:56;10.80;92.30
48998;DHT22;34807;51.456;7.244;2022-10-13T05:11:22;10.80;92.30
48998;DHT22;34807;51.456;7.244;2022-10-13T05:13:48;10.80;92.30
48998;DHT22;34807;51.456;7.244;2022-10-13T05:16:14;10.80;92.30
48998;DHT22;34807;51.456;7.244;2022-10-13T05:18:40;10.80;92.20
48998;DHT22;34807;51.456;7.244;2022-10-13T05:21:07;10.70;92.20
48998;DHT22;34807;51.456;7.244;2022-10-13T05:23:33;10.80;92.20
48998;DHT22;34807;51.456;7.244;2022-10-13T05:26:12;10.80;92.20
48998;DHT22;34807;51.456;7.244;2022-10-13T05:28:38;10.80;92.20
48998;DHT22;34807;51.456;7.244;2022-10-13T05:31:20;10.80;92.30
48998;DHT22;34807;51.456;7.244;2022-10-13T05:33:46;10.80;92.20
48998;DHT22;34807;51.456;7.244;2022-10-13T05:36:15;10.80;92.20
48998;DHT22;34807;51.456;7.244;2022-10-13T05:38:41;10.80;92.20
48998;DHT22;34807;51.456;7.244;2022-10-13T05:41:08;10.80;92.20
48998;DHT22;34807;51.456;7.244;2022-10-13T05:43:34;10.80;92.30
48998;DHT22;34807;51.456;7.244;2022-10-13T05:46:00;10.80;92.20
48998;DHT22;34807;51.456;7.244;2022-10-13T05:48:26;10.80;92.20
48998;DHT22;34807;51.456;7.244;2022-10-13T05:50:52;10.80;92.30
48998;DHT22;34807;51.456;7.244;2022-10-13T05:53:18;10.80;92.30
48998;DHT22;34807;51.456;7.244;2022-10-13T05:55:44;10.80;92.20
48998;DHT22;34807;51.456;7.244;2022-10-13T05:58:09;10.80;92.20
48998;DHT22;34807;51.456;7.244;2022-10-13T06:00:35;10.80;92.30
48998;DHT22;34807;51.456;7.244;2022-10-13T06:03:07;10.80;92.30
48998;DHT22;34807;51.456;7.244;2022-10-13T06:05:34;10.80;92.20
48998;DHT22;34807;51.456;7.244;2022-10-13T06:08:00;10.80;92.20
48998;DHT22;34807;51.456;7.244;2022-10-13T06:10:26;10.80;92.30
48998;DHT22;34807;51.456;7.244;2022-10-13T06:12:51;10.80;92.30
48998;DHT22;34807;51.456;7.244;2022-10-13T06:15:17;10.80;92.20
48998;DHT22;34807;51.456;7.244;2022-10-13T06:17:42;10.80;92.30
48998;DHT22;34807;51.456;7.244;2022-10-13T06:20:08;10.80;92.20
48998;DHT22;34807;51.456;7.244;2022-10-13T06:22:36;10.80;92.20
48998;DHT22;34807;51.456;7.244;2022-10-13T06:25:02;10.80;92.20
48998;DHT22;34807;51.456;7.244;2022-10-13T06:27:27;10.80;92.20
48998;DHT22;34807;51.456;7.244;2022-10-13T06:29:53;10.80;92.20
48998;DHT22;34807;51.456;7.244;2022-10-13T06:32:19;10.80;92.20
48998;DHT22;34807;51.456;7.244;2022-10-13T06:34:44;10.90;92.20
48998;DHT22;34807;51.456;7.244;2022-10-13T06:37:10;10.80;92.10
48998;DHT22;34807;51.456;7.244;2022-10-13T06:39:35;10.90;92.20
48998;DHT22;34807;51.456;7.244;2022-10-13T06:42:01;10.90;92.20
48998;DHT22;34807;51.456;7.244;2022-10-13T06:44:26;10.90;92.10
48998;DHT22;34807;51.456;7.244;2022-10-13T06:46:51;10.90;92.10
48998;DHT22;34807;51.456;7.244;2022-10-13T06:49:17;10.90;92.10
48998;DHT22;34807;51.456;7.244;2022-10-13T06:51:42;10.90;92.10
48998;DHT22;34807;51.456;7.244;2022-10-13T06:54:08;10.90;92.10
48998;DHT22;34807;51.456;7.244;2022-10-13T06:56:33;10.90;92.10
48998;DHT22;34807;51.456;7.244;2022-10-13T06:58:59;10.90;92.10
48998;DHT22;34807;51.456;7.244;2022-10-13T07:01:24;10.90;92.10
48998;DHT22;34807;51.456;7.244;2022-10-13T07:03:50;10.90;92.10
48998;DHT22;34807;51.456;7.244;2022-10-13T07:06:16;10.90;92.10
48998;DHT22;34807;51.456;7.244;2022-10-13T07:08:42;10.90;92.00
48998;DHT22;34807;51.456;7.244;2022-10-13T07:11:08;11.00;92.10
48998;DHT22;34807;51.456;7.244;2022-10-13T07:13:33;11.00;92.10
48998;DHT22;34807;51.456;7.244;2022-10-13T07:16:01;10.90;92.00
48998;DHT22;34807;51.456;7.244;2022-10-13T07:18:26;11.00;92.00
48998;DHT22;34807;51.456;7.244;2022-10-13T07:20:52;11.00;92.20
48998;DHT22;34807;51.456;7.244;2022-10-13T07:23:17;11.00;92.00
48998;DHT22;34807;51.456;7.244;2022-10-13T07:25:43;11.00;92.00
48998;DHT22;34807;51.456;7.244;2022-10-13T07:28:08;11.00;92.10
48998;DHT22;34807;51.456;7.244;2022-10-13T07:30:34;11.10;92.00
48998;DHT22;34807;51.456;7.244;2022-10-13T07:32:59;11.10;92.00
48998;DHT22;34807;51.456;7.244;2022-10-13T07:35:25;11.10;91.90
48998;DHT22;34807;51.456;7.244;2022-10-13T07:37:51;11.10;92.00
48998;DHT22;34807;51.456;7.244;2022-10-13T07:40:17;11.20;91.90
48998;DHT22;34807;51.456;7.244;2022-10-13T07:42:42;11.20;91.80
48998;DHT22;34807;51.456;7.244;2022-10-13T07:45:08;11.20;91.90
48998;DHT22;34807;51.456;7.244;2022-10-13T07:47:34;11.20;91.80
48998;DHT22;34807;51.456;7.244;2022-10-13T07:49:59;11.30;91.90
48998;DHT22;34807;51.456;7.244;2022-10-13T07:52:24;11.30;92.00
48998;DHT22;34807;51.456;7.244;2022-10-13T07:54:50;11.40;92.00
48998;DHT22;34807;51.456;7.244;2022-10-13T07:57:16;11.40;92.10
48998;DHT22;34807;51.456;7.244;2022-10-13T07:59:41;11.50;91.80
48998;DHT22;34807;51.456;7.244;2022-10-13T08:02:07;11.50;92.00
48998;DHT22;34807;51.456;7.244;2022-10-13T08:04:34;11.60;92.00
48998;DHT22;34807;51.456;7.244;2022-10-13T08:07:00;11.60;92.00
48998;DHT22;34807;51.456;7.244;2022-10-13T08:09:26;11.60;91.80
48998;DHT22;34807;51.456;7.244;2022-10-13T08:11:51;11.60;91.80
48998;DHT22;34807;51.456;7.244;2022-10-13T08:14:17;11.60;91.90
48998;DHT22;34807;51.456;7.244;2022-10-13T08:16:43;11.70;91.90
48998;DHT22;34807;51.456;7.244;2022-10-13T08:19:13;11.70;92.00
48998;DHT22;34807;51.456;7.244;2022-10-13T08:21:39;11.70;91.80
48998;DHT22;34807;51.456;7.244;2022-10-13T08:24:05;11.80;91.70
48998;DHT22;34807;51.456;7.244;2022-10-13T08:26:31;11.80;91.70
48998;DHT22;34807;51.456;7.244;2022-10-13T08:28:56;11.90;91.90
48998;DHT22;34807;51.456;7.244;2022-10-13T08:31:22;11.90;91.80
48998;DHT22;34807;51.456;7.244;2022-10-13T08:33:47;12.00;91.60
48998;DHT22;34807;51.456;7.244;2022-10-13T08:36:14;12.00;92.00
48998;DHT22;34807;51.456;7.244;2022-10-13T08:38:40;12.00;91.60
48998;DHT22;34807;51.456;7.244;2022-10-13T08:41:16;12.10;91.60
48998;DHT22;34807;51.456;7.244;2022-10-13T08:43:47;12.20;91.70
48998;DHT22;34807;51.456;7.244;2022-10-13T08:46:13;12.20;91.60
48998;DHT22;34807;51.456;7.244;2022-10-13T08:48:40;12.20;91.70
48998;DHT22;34807;51.456;7.244;2022-10-13T08:51:06;12.30;91.70
48998;DHT22;34807;51.456;7.244;2022-10-13T08:53:33;12.30;91.40
48998;DHT22;34807;51.456;7.244;2022-10-13T08:56:01;12.40;91.30
48998;DHT22;34807;51.456;7.244;2022-10-13T08:58:30;12.40;91.30
48998;DHT22;34807;51.456;7.244;2022-10-13T09:03:24;12.50;91.20
48998;DHT22;34807;51.456;7.244;2022-10-13T09:06:32;12.50;91.30
48998;DHT22;34807;51.456;7.244;2022-10-13T09:08:39;12.60;91.50
48998;DHT22;34807;51.456;7.244;2022-10-13T09:11:07;12.70;91.40
48998;DHT22;34807;51.456;7.244;2022-10-13T09:13:33;12.70;91.30
48998;DHT22;34807;51.456;7.244;2022-10-13T09:15:58;12.70;91.10
48998;DHT22;34807;51.456;7.244;2022-10-13T09:18:29;12.70;91.30
48998;DHT22;34807;51.456;7.244;2022-10-13T09:24:04;12.90;91.10
48998;DHT22;34807;51.456;7.244;2022-10-13T09:26:30;12.90;91.00
48998;DHT22;34807;51.456;7.244;2022-10-13T09:29:06;13.00;91.20
48998;DHT22;34807;51.456;7.244;2022-10-13T09:31:31;13.10;91.00
48998;DHT22;34807;51.456;7.244;2022-10-13T09:36:23;13.20;91.00
48998;DHT22;34807;51.456;7.244;2022-10-13T09:41:29;13.30;90.90
48998;DHT22;34807;51.456;7.244;2022-10-13T09:43:57;13.40;91.00
48998;DHT22;34807;51.456;7.244;2022-10-13T09:48:51;13.50;91.00
48998;DHT22;34807;51.456;7.244;2022-10-13T09:51:36;13.50;90.70
48998;DHT22;34807;51.456;7.244;2022-10-13T09:54:03;13.50;90.60
48998;DHT22;34807;51.456;7.244;2022-10-13T09:56:37;13.60;90.80
48998;DHT22;34807;51.456;7.244;2022-10-13T10:01:38;13.70;90.60
48998;DHT22;34807;51.456;7.244;2022-10-13T10:04:05;13.70;90.70
48998;DHT22;34807;51.456;7.244;2022-10-13T10:06:31;13.80;90.80
48998;DHT22;34807;51.456;7.244;2022-10-13T10:08:57;13.80;90.70
48998;DHT22;34807;51.456;7.244;2022-10-13T10:11:28;13.80;90.70
48998;DHT22;34807;51.456;7.244;2022-10-13T10:13:55;13.90;90.70
48998;DHT22;34807;51.456;7.244;2022-10-13T10:18:47;13.90;90.60
48998;DHT22;34807;51.456;7.244;2022-10-13T10:23:59;14.00;90.50
48998;DHT22;34807;51.456;7.244;2022-10-13T10:29:16;14.10;90.70
48998;DHT22;34807;51.456;7.244;2022-10-13T10:34:38;14.20;90.50
48998;DHT22;34807;51.456;7.244;2022-10-13T10:42:34;14.40;90.40
48998;DHT22;34807;51.456;7.244;2022-10-13T10:45:03;14.40;90.40
48998;DHT22;34807;51.456;7.244;2022-10-13T10:47:36;14.50;90.40
48998;DHT22;34807;51.456;7.244;2022-10-13T10:50:04;14.60;90.40
48998;DHT22;34807;51.456;7.244;2022-10-13T10:55:20;14.60;90.30
48998;DHT22;34807;51.456;7.244;2022-10-13T10:58:05;14.70;90.40
48998;DHT22;34807;51.456;7.244;2022-10-13T11:00:38;14.80;90.10
48998;DHT22;34807;51.456;7.244;2022-10-13T11:03:12;14.80;90.10
48998;DHT22;34807;51.456;7.244;2022-10-13T11:22:15;15.10;90.10
48998;DHT22;34807;51.456;7.244;2022-10-13T11:34:57;15.20;90.30
48998;DHT22;34807;51.456;7.244;2022-10-13T11:37:24;15.20;90.20
48998;DHT22;34807;51.456;7.244;2022-10-13T11:39:58;15.20;90.40
48998;DHT22;34807;51.456;7.244;2022-10-13T11:45:13;15.20;90.40
48998;DHT22;34807;51.456;7.244;2022-10-13T11:48:04;15.20;90.60
48998;DHT22;34807;51.456;7.244;2022-10-13T11:50:36;15.20;90.50
48998;DHT22;34807;51.456;7.244;2022-10-13T11:53:18;15.20;90.40
48998;DHT22;34807;51.456;7.244;2022-10-13T12:00:50;15.20;90.60
48998;DHT22;34807;51.456;7.244;2022-10-13T12:08:43;15.20;90.80
48998;DHT22;34807;51.456;7.244;2022-10-13T12:11:14;15.20;90.80
48998;DHT22;34807;51.456;7.244;2022-10-13T12:13:40;15.20;90.80
48998;DHT22;34807;51.456;7.244;2022-10-13T12:16:10;15.20;90.80
48998;DHT22;34807;51.456;7.244;2022-10-13T12:18:37;15.20;91.00
48998;DHT22;34807;51.456;7.244;2022-10-13T12:21:13;15.20;91.10
48998;DHT22;34807;51.456;7.244;2022-10-13T12:23:40;15.20;91.00
48998;DHT22;34807;51.456;7.244;2022-10-13T12:26:06;15.10;90.90
48998;DHT22;34807;51.456;7.244;2022-10-13T12:31:17;15.10;91.00
48998;DHT22;34807;51.456;7.244;2022-10-13T12:33:50;15.10;91.10
48998;DHT22;34807;51.456;7.244;2022-10-13T12:36:16;15.10;91.30
48998;DHT22;34807;51.456;7.244;2022-10-13T12:38:44;15.10;91.40
48998;DHT22;34807;51.456;7.244;2022-10-13T12:41:11;15.10;91.40
48998;DHT22;34807;51.456;7.244;2022-10-13T12:43:39;15.10;91.50
48998;DHT22;34807;51.456;7.244;2022-10-13T12:46:04;15.10;91.60
48998;DHT22;34807;51.456;7.244;2022-10-13T12:48:34;15.00;91.70
48998;DHT22;34807;51.456;7.244;2022-10-13T12:53:37;15.00;91.70
48998;DHT22;34807;51.456;7.244;2022-10-13T12:56:03;15.00;91.60
48998;DHT22;34807;51.456;7.244;2022-10-13T12:58:30;14.90;91.70
48998;DHT22;34807;51.456;7.244;2022-10-13T13:01:05;14.90;91.80
48998;DHT22;34807;51.456;7.244;2022-10-13T13:03:32;14.90;91.80
48998;DHT22;34807;51.456;7.244;2022-10-13T13:08:38;14.90;91.80
48998;DHT22;34807;51.456;7.244;2022-10-13T13:11:06;14.90;91.80
48998;DHT22;34807;51.456;7.244;2022-10-13T13:13:34;14.90;91.80
48998;DHT22;34807;51.456;7.244;2022-10-13T13:16:12;14.80;91.90
48998;DHT22;34807;51.456;7.244;2022-10-13T13:18:39;14.80;92.00
48998;DHT22;34807;51.456;7.244;2022-10-13T13:21:16;14.80;92.00
48998;DHT22;34807;51.456;7.244;2022-10-13T13:23:43;14.80;92.00
48998;DHT22;34807;51.456;7.244;2022-10-13T13:28:43;14.80;91.90
48998;DHT22;34807;51.456;7.244;2022-10-13T13:31:12;14.80;92.00
48998;DHT22;34807;51.456;7.244;2022-10-13T13:33:38;14.80;92.00
48998;DHT22;34807;51.456;7.244;2022-10-13T13:36:03;14.80;92.00
48998;DHT22;34807;51.456;7.244;2022-10-13T13:38:30;14.80;91.90
48998;DHT22;34807;51.456;7.244;2022-10-13T13:40:55;14.80;91.90
48998;DHT22;34807;51.456;7.244;2022-10-13T13:43:21;14.80;91.80
48998;DHT22;34807;51.456;7.244;2022-10-13T13:45:46;14.80;91.90
48998;DHT22;34807;51.456;7.244;2022-10-13T13:48:12;14.80;91.90
48998;DHT22;34807;51.456;7.244;2022-10-13T13:50:37;14.80;91.90
48998;DHT22;34807;51.456;7.244;2022-10-13T13:53:03;14.80;91.80
48998;DHT22;34807;51.456;7.244;2022-10-13T13:55:29;14.80;91.80
48998;DHT22;34807;51.456;7.244;2022-10-13T13:57:54;14.80;91.70
48998;DHT22;34807;51.456;7.244;2022-10-13T14:00:20;14.80;91.70
48998;DHT22;34807;51.456;7.244;2022-10-13T14:02:46;14.70;91.70
48998;DHT22;34807;51.456;7.244;2022-10-13T14:05:12;14.70;91.80
48998;DHT22;34807;51.456;7.244;2022-10-13T14:07:38;14.70;92.00
48998;DHT22;34807;51.456;7.244;2022-10-13T14:10:04;14.70;91.80
48998;DHT22;34807;51.456;7.244;2022-10-13T14:12:30;14.70;91.80
48998;DHT22;34807;51.456;7.244;2022-10-13T14:14:56;14.70;91.80
48998;DHT22;34807;51.456;7.244;2022-10-13T14:17:23;14.70;91.80
48998;DHT22;34807;51.456;7.244;2022-10-13T14:19:49;14.70;91.80
48998;DHT22;34807;51.456;7.244;2022-10-13T14:22:14;14.70;91.80
48998;DHT22;34807;51.456;7.244;2022-10-13T14:24:40;14.70;91.90
48998;DHT22;34807;51.456;7.244;2022-10-13T14:27:05;14.70;92.00
48998;DHT22;34807;51.456;7.244;2022-10-13T14:29:33;14.60;91.90
48998;DHT22;34807;51.456;7.244;2022-10-13T14:31:59;14.60;92.00
48998;DHT22;34807;51.456;7.244;2022-10-13T14:34:24;14.60;92.00
48998;DHT22;34807;51.456;7.244;2022-10-13T14:36:50;14.60;92.00
48998;DHT22;34807;51.456;7.244;2022-10-13T14:39:15;14.60;92.00
48998;DHT22;34807;51.456;7.244;2022-10-13T14:41:40;14.50;92.00
48998;DHT22;34807;51.456;7.244;2022-10-13T14:44:06;14.50;92.00
48998;DHT22;34807;51.456;7.244;2022-10-13T14:46:31;14.50;92.00
48998;DHT22;34807;51.456;7.244;2022-10-13T14:48:57;14.50;92.00
48998;DHT22;34807;51.456;7.244;2022-10-13T14:51:23;14.50;92.00
48998;DHT22;34807;51.456;7.244;2022-10-13T14:53:49;14.40;92.00
48998;DHT22;34807;51.456;7.244;2022-10-13T14:56:24;14.40;92.00
48998;DHT22;34807;51.456;7.244;2022-10-13T14:58:50;14.40;92.00
48998;DHT22;34807;51.456;7.244;2022-10-13T15:01:16;14.40;92.00
48998;DHT22;34807;51.456;7.244;2022-10-13T15:03:43;14.40;92.00
48998;DHT22;34807;51.456;7.244;2022-10-13T15:06:12;14.40;92.10
48998;DHT22;34807;51.456;7.244;2022-10-13T15:08:38;14.40;92.10
48998;DHT22;34807;51.456;7.244;2022-10-13T15:11:04;14.30;92.10
48998;DHT22;34807;51.456;7.244;2022-10-13T15:13:30;14.30;92.10
48998;DHT22;34807;51.456;7.244;2022-10-13T15:15:56;14.30;92.10
48998;DHT22;34807;51.456;7.244;2022-10-13T15:18:22;14.30;92.10
48998;DHT22;34807;51.456;7.244;2022-10-13T15:20:48;14.30;92.10
48998;DHT22;34807;51.456;7.244;2022-10-13T15:23:14;14.30;92.00
48998;DHT22;34807;51.456;7.244;2022-10-13T15:25:40;14.20;92.00
48998;DHT22;34807;51.456;7.244;2022-10-13T15:28:14;14.30;92.10
48998;DHT22;34807;51.456;7.244;2022-10-13T15:30:39;14.30;92.10
48998;DHT22;34807;51.456;7.244;2022-10-13T15:33:05;14.20;92.10
48998;DHT22;34807;51.456;7.244;2022-10-13T15:35:30;14.20;92.00
48998;DHT22;34807;51.456;7.244;2022-10-13T15:37:57;14.20;92.00
48998;DHT22;34807;51.456;7.244;2022-10-13T15:40:22;14.20;92.10
48998;DHT22;34807;51.456;7.244;2022-10-13T15:42:47;14.20;92.10
48998;DHT22;34807;51.456;7.244;2022-10-13T15:45:13;14.20;92.10
48998;DHT22;34807;51.456;7.244;2022-10-13T15:47:39;14.20;92.10
48998;DHT22;34807;51.456;7.244;2022-10-13T15:50:04;14.20;92.10
48998;DHT22;34807;51.456;7.244;2022-10-13T15:52:30;14.20;92.10
48998;DHT22;34807;51.456;7.244;2022-10-13T15:54:56;14.20;92.20
48998;DHT22;34807;51.456;7.244;2022-10-13T15:57:21;14.20;92.20
48998;DHT22;34807;51.456;7.244;2022-10-13T15:59:47;14.10;92.20
48998;DHT22;34807;51.456;7.244;2022-10-13T16:02:13;14.10;92.20
48998;DHT22;34807;51.456;7.244;2022-10-13T16:04:38;14.10;92.20
48998;DHT22;34807;51.456;7.244;2022-10-13T16:07:04;14.10;92.20
48998;DHT22;34807;51.456;7.244;2022-10-13T16:09:29;14.10;92.20
48998;DHT22;34807;51.456;7.244;2022-10-13T16:11:55;14.10;92.20
48998;DHT22;34807;51.456;7.244;2022-10-13T16:14:20;14.10;92.20
48998;DHT22;34807;51.456;7.244;2022-10-13T16:16:46;14.10;92.20
48998;DHT22;34807;51.456;7.244;2022-10-13T16:19:11;14.00;92.20
48998;DHT22;34807;51.456;7.244;2022-10-13T16:21:37;14.00;92.20
48998;DHT22;34807;51.456;7.244;2022-10-13T16:24:02;14.00;92.30
48998;DHT22;34807;51.456;7.244;2022-10-13T16:26:29;14.00;92.20
48998;DHT22;34807;51.456;7.244;2022-10-13T16:28:54;14.00;92.30
48998;DHT22;34807;51.456;7.244;2022-10-13T16:31:21;14.00;92.20
48998;DHT22;34807;51.456;7.244;2022-10-13T16:33:46;14.00;92.20
48998;DHT22;34807;51.456;7.244;2022-10-13T16:36:15;14.00;92.20
48998;DHT22;34807;51.456;7.244;2022-10-13T16:38:42;14.00;92.20
48998;DHT22;34807;51.456;7.244;2022-10-13T16:41:09;13.90;92.20
48998;DHT22;34807;51.456;7.244;2022-10-13T16:43:35;13.90;92.20
48998;DHT22;34807;51.456;7.244;2022-10-13T16:46:01;13.90;92.30
48998;DHT22;34807;51.456;7.244;2022-10-13T16:48:28;13.90;92.30
48998;DHT22;34807;51.456;7.244;2022-10-13T16:50:54;13.90;92.30
48998;DHT22;34807;51.456;7.244;2022-10-13T16:53:19;13.90;92.20
48998;DHT22;34807;51.456;7.244;2022-10-13T16:55:45;13.90;92.30
48998;DHT22;34807;51.456;7.244;2022-10-13T16:58:10;13.80;92.30
48998;DHT22;34807;51.456;7.244;2022-10-13T17:00:36;13.80;92.30
48998;DHT22;34807;51.456;7.244;2022-10-13T17:03:02;13.90;92.30
48998;DHT22;34807;51.456;7.244;2022-10-13T17:05:28;13.80;92.30
48998;DHT22;34807;51.456;7.244;2022-10-13T17:07:53;13.80;92.30
48998;DHT22;34807;51.456;7.244;2022-10-13T17:10:19;13.80;92.40
48998;DHT22;34807;51.456;7.244;2022-10-13T17:12:44;13.80;92.40
48998;DHT22;34807;51.456;7.244;2022-10-13T17:15:10;13.80;92.40
48998;DHT22;34807;51.456;7.244;2022-10-13T17:17:35;13.80;92.40